sensor_id;sensor_type;location;lat;lon;timestamp;P1;durP1;ratioP1;P2;durP2;ratioP2
3849;SDS011;1940;51.052;13.678;2023-02-11T00:01:31;31.00;;;12.80;;
3849;SDS011;1940;51.052;13.678;2023-02-11T00:03:58;25.57;;;11.20;;
3849;SDS011;1940;51.052;13.678;2023-02-11T00:06:25;23.50;;;11.30;;
3849;SDS011;1940;51.052;13.678;2023-02-11T00:08:52;26.70;;;11.77;;
3849;SDS011;1940;51.052;13.678;2023-02-11T00:11:19;24.60;;;11.07;;
3849;SDS011;1940;51.052;13.678;2023-02-11T00:13:45;24.37;;;11.20;;
3849;SDS011;1940;51.052;13.678;2023-02-11T00:16:16;25.90;;;11.10;;
3849;SDS011;1940;51.052;13.678;2023-02-11T00:18:43;25.20;;;11.60;;
3849;SDS011;1940;51.052;13.678;2023-02-11T00:21:10;24.20;;;11.63;;
3849;SDS011;1940;51.052;13.678;2023-02-11T00:23:38;22.77;;;11.57;;
3849;SDS011;1940;51.052;13.678;2023-02-11T00:26:10;24.37;;;11.70;;
3849;SDS011;1940;51.052;13.678;2023-02-11T00:28:38;23.17;;;11.57;;
3849;SDS011;1940;51.052;13.678;2023-02-11T00:31:03;24.10;;;11.40;;
3849;SDS011;1940;51.052;13.678;2023-02-11T00:33:29;24.87;;;11.90;;
3849;SDS011;1940;51.052;13.678;2023-02-11T00:35:54;24.60;;;12.13;;
3849;SDS011;1940;51.052;13.678;2023-02-11T00:38:20;23.60;;;11.27;;
3849;SDS011;1940;51.052;13.678;2023-02-11T00:40:45;24.67;;;11.63;;
3849;SDS011;1940;51.052;13.678;2023-02-11T00:43:11;22.70;;;11.33;;
3849;SDS011;1940;51.052;13.678;2023-02-11T00:45:36;27.43;;;12.63;;
3849;SDS011;1940;51.052;13.678;2023-02-11T00:48:02;25.17;;;12.17;;
3849;SDS011;1940;51.052;13.678;2023-02-11T00:50:27;21.60;;;11.60;;
3849;SDS011;1940;51.052;13.678;2023-02-11T00:52:53;24.30;;;11.70;;
3849;SDS011;1940;51.052;13.678;2023-02-11T00:55:18;25.33;;;12.40;;
3849;SDS011;1940;51.052;13.678;2023-02-11T00:57:44;23.63;;;11.90;;
3849;SDS011;1940;51.052;13.678;2023-02-11T01:00:10;24.83;;;12.67;;
3849;SDS011;1940;51.052;13.678;2023-02-11T01:02:37;21.50;;;11.33;;
3849;SDS011;1940;51.052;13.678;2023-02-11T01:05:03;26.33;;;12.80;;
3849;SDS011;1940;51.052;13.678;2023-02-11T01:07:29;22.97;;;11.70;;
3849;SDS011;1940;51.052;13.678;2023-02-11T01:09:55;26.00;;;12.40;;
3849;SDS011;1940;51.052;13.678;2023-02-11T01:12:21;27.40;;;12.80;;
3849;SDS011;1940;51.052;13.678;2023-02-11T01:14:47;24.17;;;11.73;;
3849;SDS011;1940;51.052;13.678;2023-02-11T01:17:12;25.30;;;12.53;;
3849;SDS011;1940;51.052;13.678;2023-02-11T01:19:38;21.90;;;11.03;;
3849;SDS011;1940;51.052;13.678;2023-02-11T01:22:05;23.50;;;12.37;;
3849;SDS011;1940;51.052;13.678;2023-02-11T01:24:31;27.67;;;12.37;;
3849;SDS011;1940;51.052;13.678;2023-02-11T01:26:56;23.53;;;12.40;;
3849;SDS011;1940;51.052;13.678;2023-02-11T01:29:22;22.47;;;12.20;;
3849;SDS011;1940;51.052;13.678;2023-02-11T01:31:48;24.30;;;12.10;;
3849;SDS011;1940;51.052;13.678;2023-02-11T01:34:13;23.40;;;11.60;;
3849;SDS011;1940;51.052;13.678;2023-02-11T01:36:39;26.17;;;12.40;;
3849;SDS011;1940;51.052;13.678;2023-02-11T01:39:05;24.90;;;12.50;;
3849;SDS011;1940;51.052;13.678;2023-02-11T01:41:32;24.33;;;12.93;;
3849;SDS011;1940;51.052;13.678;2023-02-11T01:44:19;31.30;;;12.70;;
3849;SDS011;1940;51.052;13.678;2023-02-11T01:47:00;23.40;;;11.90;;
3849;SDS011;1940;51.052;13.678;2023-02-11T01:49:32;26.03;;;12.30;;
3849;SDS011;1940;51.052;13.678;2023-02-11T01:52:06;28.73;;;13.10;;
3849;SDS011;1940;51.052;13.678;2023-02-11T01:54:47;26.03;;;12.83;;
3849;SDS011;1940;51.052;13.678;2023-02-11T01:57:36;23.53;;;11.90;;
3849;SDS011;1940;51.052;13.678;2023-02-11T02:05:47;30.67;;;12.27;;
3849;SDS011;1940;51.052;13.678;2023-02-11T02:10:49;25.27;;;12.47;;
3849;SDS011;1940;51.052;13.678;2023-02-11T02:13:20;24.13;;;12.17;;
3849;SDS011;1940;51.052;13.678;2023-02-11T02:15:48;31.47;;;14.80;;
3849;SDS011;1940;51.052;13.678;2023-02-11T02:23:57;23.60;;;12.20;;
3849;SDS011;1940;51.052;13.678;2023-02-11T02:37:46;28.80;;;13.43;;
3849;SDS011;1940;51.052;13.678;2023-02-11T02:40:31;27.77;;;14.20;;
3849;SDS011;1940;51.052;13.678;2023-02-11T02:43:01;24.60;;;11.80;;
3849;SDS011;1940;51.052;13.678;2023-02-11T02:45:28;24.70;;;12.43;;
3849;SDS011;1940;51.052;13.678;2023-02-11T02:47:54;25.87;;;12.77;;
3849;SDS011;1940;51.052;13.678;2023-02-11T02:50:20;30.97;;;13.87;;
3849;SDS011;1940;51.052;13.678;2023-02-11T03:03:48;22.57;;;11.87;;
3849;SDS011;1940;51.052;13.678;2023-02-11T03:06:30;30.87;;;12.70;;
3849;SDS011;1940;51.052;13.678;2023-02-11T03:09:06;26.00;;;12.27;;
3849;SDS011;1940;51.052;13.678;2023-02-11T03:11:43;22.73;;;11.77;;
3849;SDS011;1940;51.052;13.678;2023-02-11T03:14:10;25.93;;;12.00;;
3849;SDS011;1940;51.052;13.678;2023-02-11T03:16:40;28.03;;;12.10;;
3849;SDS011;1940;51.052;13.678;2023-02-11T03:19:12;23.50;;;12.43;;
3849;SDS011;1940;51.052;13.678;2023-02-11T03:22:09;26.07;;;12.47;;
3849;SDS011;1940;51.052;13.678;2023-02-11T03:24:39;24.37;;;12.07;;
3849;SDS011;1940;51.052;13.678;2023-02-11T03:27:08;31.47;;;13.30;;
3849;SDS011;1940;51.052;13.678;2023-02-11T03:29:41;25.23;;;12.90;;
3849;SDS011;1940;51.052;13.678;2023-02-11T03:32:17;28.03;;;12.70;;
3849;SDS011;1940;51.052;13.678;2023-02-11T03:37:59;26.60;;;13.70;;
3849;SDS011;1940;51.052;13.678;2023-02-11T03:40:31;20.60;;;11.70;;
3849;SDS011;1940;51.052;13.678;2023-02-11T03:43:07;32.07;;;14.03;;
3849;SDS011;1940;51.052;13.678;2023-02-11T03:45:41;26.80;;;12.73;;
3849;SDS011;1940;51.052;13.678;2023-02-11T03:48:13;27.13;;;13.43;;
3849;SDS011;1940;51.052;13.678;2023-02-11T03:50:42;27.50;;;13.20;;
3849;SDS011;1940;51.052;13.678;2023-02-11T03:53:09;27.60;;;13.90;;
3849;SDS011;1940;51.052;13.678;2023-02-11T03:55:37;27.07;;;13.80;;
3849;SDS011;1940;51.052;13.678;2023-02-11T03:58:04;28.07;;;13.17;;
3849;SDS011;1940;51.052;13.678;2023-02-11T04:00:35;33.97;;;14.40;;
3849;SDS011;1940;51.052;13.678;2023-02-11T04:03:03;28.13;;;14.30;;
3849;SDS011;1940;51.052;13.678;2023-02-11T04:05:29;31.07;;;13.70;;
3849;SDS011;1940;51.052;13.678;2023-02-11T04:07:54;28.70;;;13.87;;
3849;SDS011;1940;51.052;13.678;2023-02-11T04:10:20;29.80;;;13.20;;
3849;SDS011;1940;51.052;13.678;2023-02-11T04:12:46;29.20;;;14.57;;
3849;SDS011;1940;51.052;13.678;2023-02-11T04:15:11;28.03;;;14.27;;
3849;SDS011;1940;51.052;13.678;2023-02-11T04:17:37;25.67;;;13.10;;
3849;SDS011;1940;51.052;13.678;2023-02-11T04:20:03;29.67;;;13.80;;
3849;SDS011;1940;51.052;13.678;2023-02-11T04:22:28;30.70;;;13.10;;
3849;SDS011;1940;51.052;13.678;2023-02-11T04:24:54;30.63;;;13.40;;
3849;SDS011;1940;51.052;13.678;2023-02-11T04:27:20;26.93;;;13.20;;
3849;SDS011;1940;51.052;13.678;2023-02-11T04:29:45;29.77;;;13.37;;
3849;SDS011;1940;51.052;13.678;2023-02-11T04:32:11;27.90;;;12.67;;
3849;SDS011;1940;51.052;13.678;2023-02-11T04:34:37;31.73;;;14.30;;
3849;SDS011;1940;51.052;13.678;2023-02-11T04:37:02;24.80;;;13.50;;
3849;SDS011;1940;51.052;13.678;2023-02-11T04:39:28;26.63;;;13.80;;
3849;SDS011;1940;51.052;13.678;2023-02-11T04:41:53;25.40;;;12.67;;
3849;SDS011;1940;51.052;13.678;2023-02-11T04:44:19;28.17;;;12.30;;
3849;SDS011;1940;51.052;13.678;2023-02-11T04:46:44;25.77;;;12.80;;
3849;SDS011;1940;51.052;13.678;2023-02-11T04:49:11;27.30;;;12.83;;
3849;SDS011;1940;51.052;13.678;2023-02-11T04:51:38;28.63;;;13.90;;
3849;SDS011;1940;51.052;13.678;2023-02-11T04:54:03;30.60;;;13.30;;
3849;SDS011;1940;51.052;13.678;2023-02-11T04:56:29;31.37;;;14.40;;
3849;SDS011;1940;51.052;13.678;2023-02-11T04:58:54;29.80;;;14.10;;
3849;SDS011;1940;51.052;13.678;2023-02-11T05:01:20;28.23;;;14.17;;
3849;SDS011;1940;51.052;13.678;2023-02-11T05:03:45;29.97;;;15.17;;
3849;SDS011;1940;51.052;13.678;2023-02-11T05:06:11;29.03;;;14.33;;
3849;SDS011;1940;51.052;13.678;2023-02-11T05:08:36;30.70;;;13.67;;
3849;SDS011;1940;51.052;13.678;2023-02-11T05:11:02;27.20;;;13.83;;
3849;SDS011;1940;51.052;13.678;2023-02-11T05:13:28;29.50;;;14.13;;
3849;SDS011;1940;51.052;13.678;2023-02-11T05:15:54;31.23;;;14.30;;
3849;SDS011;1940;51.052;13.678;2023-02-11T05:18:20;32.20;;;13.80;;
3849;SDS011;1940;51.052;13.678;2023-02-11T05:20:45;30.00;;;14.03;;
3849;SDS011;1940;51.052;13.678;2023-02-11T05:23:11;28.27;;;13.00;;
3849;SDS011;1940;51.052;13.678;2023-02-11T05:25:36;30.73;;;15.10;;
3849;SDS011;1940;51.052;13.678;2023-02-11T05:28:02;31.73;;;14.60;;
3849;SDS011;1940;51.052;13.678;2023-02-11T05:30:28;28.40;;;13.77;;
3849;SDS011;1940;51.052;13.678;2023-02-11T05:32:54;30.23;;;13.87;;
3849;SDS011;1940;51.052;13.678;2023-02-11T05:35:20;28.40;;;13.73;;
3849;SDS011;1940;51.052;13.678;2023-02-11T05:37:46;37.20;;;15.13;;
3849;SDS011;1940;51.052;13.678;2023-02-11T05:40:12;31.33;;;13.73;;
3849;SDS011;1940;51.052;13.678;2023-02-11T05:42:37;29.97;;;15.37;;
3849;SDS011;1940;51.052;13.678;2023-02-11T05:45:03;28.50;;;14.47;;
3849;SDS011;1940;51.052;13.678;2023-02-11T05:47:29;32.20;;;14.50;;
3849;SDS011;1940;51.052;13.678;2023-02-11T05:49:55;33.10;;;14.53;;
3849;SDS011;1940;51.052;13.678;2023-02-11T05:52:21;31.50;;;15.77;;
3849;SDS011;1940;51.052;13.678;2023-02-11T05:54:47;36.33;;;15.47;;
3849;SDS011;1940;51.052;13.678;2023-02-11T05:57:13;30.80;;;15.20;;
3849;SDS011;1940;51.052;13.678;2023-02-11T05:59:40;42.13;;;15.67;;
3849;SDS011;1940;51.052;13.678;2023-02-11T06:02:05;30.60;;;13.67;;
3849;SDS011;1940;51.052;13.678;2023-02-11T06:04:32;31.53;;;15.97;;
3849;SDS011;1940;51.052;13.678;2023-02-11T06:06:58;30.30;;;14.67;;
3849;SDS011;1940;51.052;13.678;2023-02-11T06:09:23;32.70;;;15.07;;
3849;SDS011;1940;51.052;13.678;2023-02-11T06:11:49;31.53;;;15.07;;
3849;SDS011;1940;51.052;13.678;2023-02-11T06:14:15;35.83;;;14.03;;
3849;SDS011;1940;51.052;13.678;2023-02-11T06:16:40;35.10;;;15.77;;
3849;SDS011;1940;51.052;13.678;2023-02-11T06:19:06;29.93;;;14.47;;
3849;SDS011;1940;51.052;13.678;2023-02-11T06:21:31;33.60;;;15.20;;
3849;SDS011;1940;51.052;13.678;2023-02-11T06:23:57;29.63;;;13.80;;
3849;SDS011;1940;51.052;13.678;2023-02-11T06:26:23;33.37;;;14.87;;
3849;SDS011;1940;51.052;13.678;2023-02-11T06:28:48;28.63;;;13.70;;
3849;SDS011;1940;51.052;13.678;2023-02-11T06:31:14;28.17;;;14.10;;
3849;SDS011;1940;51.052;13.678;2023-02-11T06:33:40;31.30;;;15.10;;
3849;SDS011;1940;51.052;13.678;2023-02-11T06:36:13;30.03;;;14.40;;
3849;SDS011;1940;51.052;13.678;2023-02-11T06:38:41;30.10;;;14.93;;
3849;SDS011;1940;51.052;13.678;2023-02-11T06:41:10;34.03;;;14.67;;
3849;SDS011;1940;51.052;13.678;2023-02-11T06:43:37;29.13;;;13.67;;
3849;SDS011;1940;51.052;13.678;2023-02-11T06:46:03;34.93;;;15.27;;
3849;SDS011;1940;51.052;13.678;2023-02-11T06:48:29;31.93;;;14.17;;
3849;SDS011;1940;51.052;13.678;2023-02-11T06:50:55;27.23;;;14.47;;
3849;SDS011;1940;51.052;13.678;2023-02-11T06:53:20;29.97;;;14.10;;
3849;SDS011;1940;51.052;13.678;2023-02-11T06:55:46;27.97;;;14.13;;
3849;SDS011;1940;51.052;13.678;2023-02-11T06:58:11;32.83;;;15.40;;
3849;SDS011;1940;51.052;13.678;2023-02-11T07:00:37;29.47;;;14.87;;
3849;SDS011;1940;51.052;13.678;2023-02-11T07:03:02;34.77;;;16.30;;
3849;SDS011;1940;51.052;13.678;2023-02-11T07:05:28;31.23;;;13.30;;
3849;SDS011;1940;51.052;13.678;2023-02-11T07:07:54;32.63;;;15.43;;
3849;SDS011;1940;51.052;13.678;2023-02-11T07:10:19;33.90;;;15.47;;
3849;SDS011;1940;51.052;13.678;2023-02-11T07:12:45;34.70;;;16.03;;
3849;SDS011;1940;51.052;13.678;2023-02-11T07:15:10;32.27;;;15.47;;
3849;SDS011;1940;51.052;13.678;2023-02-11T07:17:36;40.37;;;16.57;;
3849;SDS011;1940;51.052;13.678;2023-02-11T07:20:02;30.80;;;15.03;;
3849;SDS011;1940;51.052;13.678;2023-02-11T07:22:28;30.43;;;15.27;;
3849;SDS011;1940;51.052;13.678;2023-02-11T07:24:53;33.33;;;15.57;;
3849;SDS011;1940;51.052;13.678;2023-02-11T07:27:19;36.20;;;16.07;;
3849;SDS011;1940;51.052;13.678;2023-02-11T07:29:44;37.00;;;17.20;;
3849;SDS011;1940;51.052;13.678;2023-02-11T07:32:11;35.73;;;16.00;;
3849;SDS011;1940;51.052;13.678;2023-02-11T07:34:37;37.37;;;17.60;;
3849;SDS011;1940;51.052;13.678;2023-02-11T07:37:02;37.83;;;17.27;;
3849;SDS011;1940;51.052;13.678;2023-02-11T07:39:28;35.17;;;18.00;;
3849;SDS011;1940;51.052;13.678;2023-02-11T07:41:54;41.13;;;18.10;;
3849;SDS011;1940;51.052;13.678;2023-02-11T07:44:20;40.33;;;16.57;;
3849;SDS011;1940;51.052;13.678;2023-02-11T07:46:46;34.77;;;17.70;;
3849;SDS011;1940;51.052;13.678;2023-02-11T07:49:14;36.67;;;15.50;;
3849;SDS011;1940;51.052;13.678;2023-02-11T07:51:40;34.67;;;16.40;;
3849;SDS011;1940;51.052;13.678;2023-02-11T07:54:06;33.63;;;15.87;;
3849;SDS011;1940;51.052;13.678;2023-02-11T07:56:32;31.83;;;15.60;;
3849;SDS011;1940;51.052;13.678;2023-02-11T07:58:58;35.23;;;15.77;;
3849;SDS011;1940;51.052;13.678;2023-02-11T08:01:25;36.63;;;17.03;;
3849;SDS011;1940;51.052;13.678;2023-02-11T08:03:52;33.50;;;16.40;;
3849;SDS011;1940;51.052;13.678;2023-02-11T08:06:23;32.87;;;15.90;;
3849;SDS011;1940;51.052;13.678;2023-02-11T08:08:50;36.33;;;16.90;;
3849;SDS011;1940;51.052;13.678;2023-02-11T08:11:17;26.47;;;13.67;;
3849;SDS011;1940;51.052;13.678;2023-02-11T08:13:48;33.73;;;15.50;;
3849;SDS011;1940;51.052;13.678;2023-02-11T08:16:21;31.77;;;16.57;;
3849;SDS011;1940;51.052;13.678;2023-02-11T08:18:52;32.57;;;15.63;;
3849;SDS011;1940;51.052;13.678;2023-02-11T08:21:20;35.00;;;16.20;;
3849;SDS011;1940;51.052;13.678;2023-02-11T08:23:45;32.03;;;15.10;;
3849;SDS011;1940;51.052;13.678;2023-02-11T08:26:12;30.00;;;14.90;;
3849;SDS011;1940;51.052;13.678;2023-02-11T08:28:44;28.83;;;14.53;;
3849;SDS011;1940;51.052;13.678;2023-02-11T08:31:14;36.77;;;15.73;;
3849;SDS011;1940;51.052;13.678;2023-02-11T08:33:42;29.07;;;15.53;;
3849;SDS011;1940;51.052;13.678;2023-02-11T08:36:13;32.00;;;15.57;;
3849;SDS011;1940;51.052;13.678;2023-02-11T08:38:40;28.73;;;13.87;;
3849;SDS011;1940;51.052;13.678;2023-02-11T08:41:06;30.97;;;14.27;;
3849;SDS011;1940;51.052;13.678;2023-02-11T08:43:34;38.93;;;16.10;;
3849;SDS011;1940;51.052;13.678;2023-02-11T08:46:00;33.70;;;14.83;;
3849;SDS011;1940;51.052;13.678;2023-02-11T08:48:26;29.40;;;14.93;;
3849;SDS011;1940;51.052;13.678;2023-02-11T08:50:53;37.87;;;13.20;;
3849;SDS011;1940;51.052;13.678;2023-02-11T08:53:21;28.83;;;14.90;;
3849;SDS011;1940;51.052;13.678;2023-02-11T08:55:48;27.23;;;14.80;;
3849;SDS011;1940;51.052;13.678;2023-02-11T08:58:18;30.90;;;14.90;;
3849;SDS011;1940;51.052;13.678;2023-02-11T09:00:44;34.90;;;15.10;;
3849;SDS011;1940;51.052;13.678;2023-02-11T09:03:10;32.83;;;14.80;;
3849;SDS011;1940;51.052;13.678;2023-02-11T09:05:43;29.70;;;14.60;;
3849;SDS011;1940;51.052;13.678;2023-02-11T09:08:09;34.83;;;15.40;;
3849;SDS011;1940;51.052;13.678;2023-02-11T09:10:35;30.70;;;14.83;;
3849;SDS011;1940;51.052;13.678;2023-02-11T09:13:01;31.43;;;15.97;;
3849;SDS011;1940;51.052;13.678;2023-02-11T09:15:26;33.27;;;14.83;;
3849;SDS011;1940;51.052;13.678;2023-02-11T09:17:52;29.00;;;14.90;;
3849;SDS011;1940;51.052;13.678;2023-02-11T09:20:17;28.90;;;14.73;;
3849;SDS011;1940;51.052;13.678;2023-02-11T09:22:43;30.77;;;14.43;;
3849;SDS011;1940;51.052;13.678;2023-02-11T09:25:10;31.77;;;14.57;;
3849;SDS011;1940;51.052;13.678;2023-02-11T09:27:35;33.83;;;14.67;;
3849;SDS011;1940;51.052;13.678;2023-02-11T09:30:01;31.60;;;15.07;;
3849;SDS011;1940;51.052;13.678;2023-02-11T09:32:27;32.40;;;15.63;;
3849;SDS011;1940;51.052;13.678;2023-02-11T09:34:53;29.40;;;15.43;;
3849;SDS011;1940;51.052;13.678;2023-02-11T09:37:18;29.10;;;15.07;;
3849;SDS011;1940;51.052;13.678;2023-02-11T09:39:44;31.30;;;15.40;;
3849;SDS011;1940;51.052;13.678;2023-02-11T09:42:24;30.57;;;14.70;;
3849;SDS011;1940;51.052;13.678;2023-02-11T09:45:03;34.47;;;15.10;;
3849;SDS011;1940;51.052;13.678;2023-02-11T09:47:35;36.80;;;15.97;;
3849;SDS011;1940;51.052;13.678;2023-02-11T09:50:11;34.67;;;15.67;;
3849;SDS011;1940;51.052;13.678;2023-02-11T09:55:28;30.43;;;15.40;;
3849;SDS011;1940;51.052;13.678;2023-02-11T09:57:58;34.17;;;14.83;;
3849;SDS011;1940;51.052;13.678;2023-02-11T10:06:16;31.40;;;15.10;;
3849;SDS011;1940;51.052;13.678;2023-02-11T10:17:50;36.00;;;15.17;;
3849;SDS011;1940;51.052;13.678;2023-02-11T10:20:54;31.57;;;16.53;;
3849;SDS011;1940;51.052;13.678;2023-02-11T10:23:30;32.80;;;15.27;;
3849;SDS011;1940;51.052;13.678;2023-02-11T10:25:59;34.40;;;16.10;;
3849;SDS011;1940;51.052;13.678;2023-02-11T10:28:32;27.90;;;15.37;;
3849;SDS011;1940;51.052;13.678;2023-02-11T10:31:01;30.47;;;15.47;;
3849;SDS011;1940;51.052;13.678;2023-02-11T10:33:33;28.20;;;14.77;;
3849;SDS011;1940;51.052;13.678;2023-02-11T10:36:07;34.77;;;15.40;;
3849;SDS011;1940;51.052;13.678;2023-02-11T10:38:36;30.77;;;15.10;;
3849;SDS011;1940;51.052;13.678;2023-02-11T10:41:01;40.00;;;14.87;;
3849;SDS011;1940;51.052;13.678;2023-02-11T10:43:27;31.50;;;15.30;;
3849;SDS011;1940;51.052;13.678;2023-02-11T10:45:56;27.73;;;14.47;;
3849;SDS011;1940;51.052;13.678;2023-02-11T10:53:52;29.13;;;14.40;;
3849;SDS011;1940;51.052;13.678;2023-02-11T10:56:44;30.90;;;16.00;;
3849;SDS011;1940;51.052;13.678;2023-02-11T10:59:16;30.53;;;15.07;;
3849;SDS011;1940;51.052;13.678;2023-02-11T11:01:56;29.33;;;14.33;;
3849;SDS011;1940;51.052;13.678;2023-02-11T11:06:55;31.37;;;14.73;;
3849;SDS011;1940;51.052;13.678;2023-02-11T11:09:29;30.43;;;14.00;;
3849;SDS011;1940;51.052;13.678;2023-02-11T11:12:17;32.57;;;15.00;;
3849;SDS011;1940;51.052;13.678;2023-02-11T11:17:35;31.93;;;14.00;;
3849;SDS011;1940;51.052;13.678;2023-02-11T11:20:12;28.83;;;13.93;;
3849;SDS011;1940;51.052;13.678;2023-02-11T11:22:40;30.17;;;15.00;;
3849;SDS011;1940;51.052;13.678;2023-02-11T11:25:22;28.90;;;14.50;;
3849;SDS011;1940;51.052;13.678;2023-02-11T11:27:53;26.07;;;13.97;;
3849;SDS011;1940;51.052;13.678;2023-02-11T11:30:26;26.80;;;14.17;;
3849;SDS011;1940;51.052;13.678;2023-02-11T11:32:58;30.40;;;14.67;;
3849;SDS011;1940;51.052;13.678;2023-02-11T11:35:26;29.63;;;13.43;;
3849;SDS011;1940;51.052;13.678;2023-02-11T11:37:54;27.47;;;13.77;;
3849;SDS011;1940;51.052;13.678;2023-02-11T11:40:26;32.53;;;14.77;;
3849;SDS011;1940;51.052;13.678;2023-02-11T11:43:08;28.07;;;13.83;;
3849;SDS011;1940;51.052;13.678;2023-02-11T11:45:56;27.90;;;13.23;;
3849;SDS011;1940;51.052;13.678;2023-02-11T11:48:24;27.60;;;13.93;;
3849;SDS011;1940;51.052;13.678;2023-02-11T11:50:55;27.33;;;14.10;;
3849;SDS011;1940;51.052;13.678;2023-02-11T11:53:36;29.83;;;14.37;;
3849;SDS011;1940;51.052;13.678;2023-02-11T11:56:17;33.43;;;14.63;;
3849;SDS011;1940;51.052;13.678;2023-02-11T11:58:45;27.33;;;13.80;;
3849;SDS011;1940;51.052;13.678;2023-02-11T12:17:59;30.10;;;14.53;;
3849;SDS011;1940;51.052;13.678;2023-02-11T12:23:39;29.43;;;14.10;;
3849;SDS011;1940;51.052;13.678;2023-02-11T12:26:20;27.40;;;14.03;;
3849;SDS011;1940;51.052;13.678;2023-02-11T12:29:08;30.40;;;14.40;;
3849;SDS011;1940;51.052;13.678;2023-02-11T12:37:08;26.83;;;13.40;;
3849;SDS011;1940;51.052;13.678;2023-02-11T12:39:50;29.23;;;13.53;;
3849;SDS011;1940;51.052;13.678;2023-02-11T12:46:00;30.47;;;14.50;;
3849;SDS011;1940;51.052;13.678;2023-02-11T12:49:02;27.47;;;13.77;;
3849;SDS011;1940;51.052;13.678;2023-02-11T12:54:35;30.47;;;14.97;;
3849;SDS011;1940;51.052;13.678;2023-02-11T12:57:22;25.77;;;13.40;;
3849;SDS011;1940;51.052;13.678;2023-02-11T13:02:51;32.07;;;13.60;;
3849;SDS011;1940;51.052;13.678;2023-02-11T13:05:33;27.07;;;12.73;;
3849;SDS011;1940;51.052;13.678;2023-02-11T13:08:12;29.67;;;14.43;;
3849;SDS011;1940;51.052;13.678;2023-02-11T13:10:40;24.50;;;12.90;;
3849;SDS011;1940;51.052;13.678;2023-02-11T13:13:15;29.77;;;13.47;;
3849;SDS011;1940;51.052;13.678;2023-02-11T13:16:28;25.27;;;13.07;;
3849;SDS011;1940;51.052;13.678;2023-02-11T13:19:00;29.43;;;14.37;;
3849;SDS011;1940;51.052;13.678;2023-02-11T13:24:36;25.50;;;13.00;;
3849;SDS011;1940;51.052;13.678;2023-02-11T13:30:02;24.60;;;12.83;;
3849;SDS011;1940;51.052;13.678;2023-02-11T13:35:29;26.00;;;12.80;;
3849;SDS011;1940;51.052;13.678;2023-02-11T13:38:24;29.07;;;13.70;;
3849;SDS011;1940;51.052;13.678;2023-02-11T13:41:02;24.87;;;13.20;;
3849;SDS011;1940;51.052;13.678;2023-02-11T13:46:26;25.60;;;12.80;;
3849;SDS011;1940;51.052;13.678;2023-02-11T13:48:54;25.57;;;12.50;;
3849;SDS011;1940;51.052;13.678;2023-02-11T13:51:41;27.63;;;13.33;;
3849;SDS011;1940;51.052;13.678;2023-02-11T13:54:06;31.87;;;12.77;;
3849;SDS011;1940;51.052;13.678;2023-02-11T13:56:42;25.17;;;12.80;;
3849;SDS011;1940;51.052;13.678;2023-02-11T14:10:51;27.17;;;13.20;;
3849;SDS011;1940;51.052;13.678;2023-02-11T14:15:47;28.93;;;14.13;;
3849;SDS011;1940;51.052;13.678;2023-02-11T14:21:11;25.60;;;13.20;;
3849;SDS011;1940;51.052;13.678;2023-02-11T14:23:43;27.50;;;13.43;;
3849;SDS011;1940;51.052;13.678;2023-02-11T14:28:35;37.83;;;14.47;;
3849;SDS011;1940;51.052;13.678;2023-02-11T14:31:06;26.03;;;13.23;;
3849;SDS011;1940;51.052;13.678;2023-02-11T14:33:38;30.60;;;13.83;;
3849;SDS011;1940;51.052;13.678;2023-02-11T14:38:51;25.13;;;13.20;;
3849;SDS011;1940;51.052;13.678;2023-02-11T14:41:40;23.10;;;12.33;;
3849;SDS011;1940;51.052;13.678;2023-02-11T14:44:16;29.37;;;13.60;;
3849;SDS011;1940;51.052;13.678;2023-02-11T14:46:46;28.07;;;13.70;;
3849;SDS011;1940;51.052;13.678;2023-02-11T14:49:20;24.37;;;12.50;;
3849;SDS011;1940;51.052;13.678;2023-02-11T14:51:53;23.93;;;12.20;;
3849;SDS011;1940;51.052;13.678;2023-02-11T14:54:23;27.43;;;13.17;;
3849;SDS011;1940;51.052;13.678;2023-02-11T15:00:14;24.67;;;12.67;;
3849;SDS011;1940;51.052;13.678;2023-02-11T15:02:34;26.37;;;13.70;;
3849;SDS011;1940;51.052;13.678;2023-02-11T15:05:17;27.07;;;13.43;;
3849;SDS011;1940;51.052;13.678;2023-02-11T15:07:45;25.67;;;12.90;;
3849;SDS011;1940;51.052;13.678;2023-02-11T15:10:18;27.80;;;11.83;;
3849;SDS011;1940;51.052;13.678;2023-02-11T15:13:02;26.53;;;12.50;;
3849;SDS011;1940;51.052;13.678;2023-02-11T15:15:29;26.43;;;13.83;;
3849;SDS011;1940;51.052;13.678;2023-02-11T15:17:57;36.27;;;16.33;;
3849;SDS011;1940;51.052;13.678;2023-02-11T15:20:25;25.50;;;13.83;;
3849;SDS011;1940;51.052;13.678;2023-02-11T15:22:54;22.37;;;12.43;;
3849;SDS011;1940;51.052;13.678;2023-02-11T15:25:23;26.10;;;13.70;;
3849;SDS011;1940;51.052;13.678;2023-02-11T15:27:49;21.63;;;11.90;;
3849;SDS011;1940;51.052;13.678;2023-02-11T15:30:23;27.23;;;13.27;;
3849;SDS011;1940;51.052;13.678;2023-02-11T15:32:52;26.10;;;13.30;;
3849;SDS011;1940;51.052;13.678;2023-02-11T15:35:31;28.27;;;13.63;;
3849;SDS011;1940;51.052;13.678;2023-02-11T15:37:59;27.33;;;13.80;;
3849;SDS011;1940;51.052;13.678;2023-02-11T15:40:26;28.30;;;14.30;;
3849;SDS011;1940;51.052;13.678;2023-02-11T15:43:00;25.20;;;14.10;;
3849;SDS011;1940;51.052;13.678;2023-02-11T15:45:28;25.30;;;12.23;;
3849;SDS011;1940;51.052;13.678;2023-02-11T15:48:04;22.87;;;11.60;;
3849;SDS011;1940;51.052;13.678;2023-02-11T15:51:00;24.33;;;12.00;;
3849;SDS011;1940;51.052;13.678;2023-02-11T15:53:35;27.10;;;13.20;;
3849;SDS011;1940;51.052;13.678;2023-02-11T15:58:36;26.80;;;13.43;;
3849;SDS011;1940;51.052;13.678;2023-02-11T16:01:03;28.00;;;12.70;;
3849;SDS011;1940;51.052;13.678;2023-02-11T16:03:29;28.97;;;13.80;;
3849;SDS011;1940;51.052;13.678;2023-02-11T16:05:56;29.23;;;14.40;;
3849;SDS011;1940;51.052;13.678;2023-02-11T16:08:40;26.87;;;12.87;;
3849;SDS011;1940;51.052;13.678;2023-02-11T16:11:18;26.53;;;13.50;;
3849;SDS011;1940;51.052;13.678;2023-02-11T16:13:53;26.70;;;13.03;;
3849;SDS011;1940;51.052;13.678;2023-02-11T16:16:23;25.40;;;13.27;;
3849;SDS011;1940;51.052;13.678;2023-02-11T16:18:58;27.60;;;13.13;;
3849;SDS011;1940;51.052;13.678;2023-02-11T16:21:34;29.13;;;13.60;;
3849;SDS011;1940;51.052;13.678;2023-02-11T16:24:13;28.40;;;12.77;;
3849;SDS011;1940;51.052;13.678;2023-02-11T16:26:52;27.33;;;13.70;;
3849;SDS011;1940;51.052;13.678;2023-02-11T16:29:30;27.60;;;14.33;;
3849;SDS011;1940;51.052;13.678;2023-02-11T16:32:06;28.30;;;13.87;;
3849;SDS011;1940;51.052;13.678;2023-02-11T16:34:39;30.13;;;14.13;;
3849;SDS011;1940;51.052;13.678;2023-02-11T16:37:05;29.87;;;14.13;;
3849;SDS011;1940;51.052;13.678;2023-02-11T16:39:31;29.50;;;13.23;;
3849;SDS011;1940;51.052;13.678;2023-02-11T16:41:56;27.73;;;13.70;;
3849;SDS011;1940;51.052;13.678;2023-02-11T16:44:22;27.97;;;14.27;;
3849;SDS011;1940;51.052;13.678;2023-02-11T16:46:48;33.03;;;15.97;;
3849;SDS011;1940;51.052;13.678;2023-02-11T16:49:22;30.17;;;15.17;;
3849;SDS011;1940;51.052;13.678;2023-02-11T16:51:51;28.93;;;13.10;;
3849;SDS011;1940;51.052;13.678;2023-02-11T16:54:21;33.27;;;15.73;;
3849;SDS011;1940;51.052;13.678;2023-02-11T16:56:47;29.70;;;14.30;;
3849;SDS011;1940;51.052;13.678;2023-02-11T16:59:13;33.97;;;16.57;;
3849;SDS011;1940;51.052;13.678;2023-02-11T17:01:39;32.57;;;15.30;;
3849;SDS011;1940;51.052;13.678;2023-02-11T17:04:09;28.93;;;15.27;;
3849;SDS011;1940;51.052;13.678;2023-02-11T17:06:40;32.77;;;15.27;;
3849;SDS011;1940;51.052;13.678;2023-02-11T17:09:05;33.97;;;16.47;;
3849;SDS011;1940;51.052;13.678;2023-02-11T17:11:32;30.77;;;14.23;;